sensor_id;sensor_type;location;lat;lon;timestamp;temperature;humidity
4201;DHT22;2114;50.398;8.814;2022-12-07T00:00:35;3.90;99.90
4201;DHT22;2114;50.398;8.814;2022-12-07T00:05:35;3.80;99.90
4201;DHT22;2114;50.398;8.814;2022-12-07T00:10:36;3.80;99.90
4201;DHT22;2114;50.398;8.814;2022-12-07T00:15:36;3.80;99.90
4201;DHT22;2114;50.398;8.814;2022-12-07T00:20:37;3.80;99.90
4201;DHT22;2114;50.398;8.814;2022-12-07T00:25:37;3.80;99.90
4201;DHT22;2114;50.398;8.814;2022-12-07T00:30:38;3.80;99.90
4201;DHT22;2114;50.398;8.814;2022-12-07T00:35:38;3.70;99.90
4201;DHT22;2114;50.398;8.814;2022-12-07T00:40:39;3.70;99.90
4201;DHT22;2114;50.398;8.814;2022-12-07T00:45:40;3.70;99.90
4201;DHT22;2114;50.398;8.814;2022-12-07T00:50:40;3.70;99.90
4201;DHT22;2114;50.398;8.814;2022-12-07T00:55:41;3.70;99.90
4201;DHT22;2114;50.398;8.814;2022-12-07T01:00:42;3.70;99.90
4201;DHT22;2114;50.398;8.814;2022-12-07T01:05:51;3.70;99.90
4201;DHT22;2114;50.398;8.814;2022-12-07T01:11:19;3.70;99.90
4201;DHT22;2114;50.398;8.814;2022-12-07T01:16:21;3.70;99.90
4201;DHT22;2114;50.398;8.814;2022-12-07T01:21:28;3.70;99.90
4201;DHT22;2114;50.398;8.814;2022-12-07T01:26:28;3.70;99.90
4201;DHT22;2114;50.398;8.814;2022-12-07T01:31:29;3.70;99.90
4201;DHT22;2114;50.398;8.814;2022-12-07T01:36:32;3.70;99.90
4201;DHT22;2114;50.398;8.814;2022-12-07T01:41:36;3.70;99.90
4201;DHT22;2114;50.398;8.814;2022-12-07T01:46:37;3.70;99.90
4201;DHT22;2114;50.398;8.814;2022-12-07T01:51:39;3.70;99.90
4201;DHT22;2114;50.398;8.814;2022-12-07T01:56:45;3.70;99.90
4201;DHT22;2114;50.398;8.814;2022-12-07T02:01:47;3.70;99.90
4201;DHT22;2114;50.398;8.814;2022-12-07T02:06:48;3.60;99.90
4201;DHT22;2114;50.398;8.814;2022-12-07T02:11:50;3.60;99.90
4201;DHT22;2114;50.398;8.814;2022-12-07T02:27:52;3.60;99.90
4201;DHT22;2114;50.398;8.814;2022-12-07T02:43:52;3.50;99.90
4201;DHT22;2114;50.398;8.814;2022-12-07T02:48:55;3.50;99.90
4201;DHT22;2114;50.398;8.814;2022-12-07T02:53:55;3.50;99.90
4201;DHT22;2114;50.398;8.814;2022-12-07T02:59:02;3.50;99.90
4201;DHT22;2114;50.398;8.814;2022-12-07T03:10:08;3.50;99.90
4201;DHT22;2114;50.398;8.814;2022-12-07T03:15:10;3.50;99.90
4201;DHT22;2114;50.398;8.814;2022-12-07T03:20:16;3.50;99.90
4201;DHT22;2114;50.398;8.814;2022-12-07T03:25:19;3.50;99.90
4201;DHT22;2114;50.398;8.814;2022-12-07T03:30:23;3.50;99.90
4201;DHT22;2114;50.398;8.814;2022-12-07T03:35:33;3.50;99.90
4201;DHT22;2114;50.398;8.814;2022-12-07T03:40:40;3.60;99.90
4201;DHT22;2114;50.398;8.814;2022-12-07T03:45:44;3.60;99.90
4201;DHT22;2114;50.398;8.814;2022-12-07T03:56:12;3.60;99.90
4201;DHT22;2114;50.398;8.814;2022-12-07T04:01:12;3.60;99.90
4201;DHT22;2114;50.398;8.814;2022-12-07T04:06:13;3.70;99.90
4201;DHT22;2114;50.398;8.814;2022-12-07T04:11:14;3.70;99.90
4201;DHT22;2114;50.398;8.814;2022-12-07T04:16:14;3.70;99.90
4201;DHT22;2114;50.398;8.814;2022-12-07T04:21:15;3.70;99.90
4201;DHT22;2114;50.398;8.814;2022-12-07T04:26:15;3.70;99.90
4201;DHT22;2114;50.398;8.814;2022-12-07T04:31:16;3.70;99.90
4201;DHT22;2114;50.398;8.814;2022-12-07T04:36:17;3.70;99.90
4201;DHT22;2114;50.398;8.814;2022-12-07T04:41:17;3.70;99.90
4201;DHT22;2114;50.398;8.814;2022-12-07T04:46:18;3.70;99.90
4201;DHT22;2114;50.398;8.814;2022-12-07T04:51:21;3.70;99.90
4201;DHT22;2114;50.398;8.814;2022-12-07T04:56:23;3.70;99.90
4201;DHT22;2114;50.398;8.814;2022-12-07T05:01:24;3.80;99.90
4201;DHT22;2114;50.398;8.814;2022-12-07T05:06:25;3.80;99.90
4201;DHT22;2114;50.398;8.814;2022-12-07T05:11:25;3.80;99.90
4201;DHT22;2114;50.398;8.814;2022-12-07T05:16:38;3.80;99.90
4201;DHT22;2114;50.398;8.814;2022-12-07T05:21:39;3.80;99.90
4201;DHT22;2114;50.398;8.814;2022-12-07T05:26:40;3.70;99.90
4201;DHT22;2114;50.398;8.814;2022-12-07T05:31:41;3.80;99.90
4201;DHT22;2114;50.398;8.814;2022-12-07T05:36:41;3.80;99.90
4201;DHT22;2114;50.398;8.814;2022-12-07T05:41:42;3.70;99.90
4201;DHT22;2114;50.398;8.814;2022-12-07T05:47:01;3.70;99.90
4201;DHT22;2114;50.398;8.814;2022-12-07T05:52:02;3.70;99.90
4201;DHT22;2114;50.398;8.814;2022-12-07T05:57:03;3.70;99.90
4201;DHT22;2114;50.398;8.814;2022-12-07T06:02:09;3.70;99.90
4201;DHT22;2114;50.398;8.814;2022-12-07T06:07:11;3.70;99.90
4201;DHT22;2114;50.398;8.814;2022-12-07T06:12:13;3.70;99.90
4201;DHT22;2114;50.398;8.814;2022-12-07T06:17:32;3.70;99.90
4201;DHT22;2114;50.398;8.814;2022-12-07T06:22:32;3.70;99.90
4201;DHT22;2114;50.398;8.814;2022-12-07T06:27:33;3.80;99.90
4201;DHT22;2114;50.398;8.814;2022-12-07T06:32:35;3.80;99.90
4201;DHT22;2114;50.398;8.814;2022-12-07T06:37:36;3.80;99.90
4201;DHT22;2114;50.398;8.814;2022-12-07T06:42:36;3.80;99.90
4201;DHT22;2114;50.398;8.814;2022-12-07T06:47:37;3.80;99.90
4201;DHT22;2114;50.398;8.814;2022-12-07T06:52:37;3.80;99.90
4201;DHT22;2114;50.398;8.814;2022-12-07T06:57:38;3.80;99.90
4201;DHT22;2114;50.398;8.814;2022-12-07T07:02:38;3.80;99.90
4201;DHT22;2114;50.398;8.814;2022-12-07T07:07:39;3.80;99.90
4201;DHT22;2114;50.398;8.814;2022-12-07T07:12:39;3.80;99.90
4201;DHT22;2114;50.398;8.814;2022-12-07T07:17:40;3.80;99.90
4201;DHT22;2114;50.398;8.814;2022-12-07T07:22:40;3.80;99.90
4201;DHT22;2114;50.398;8.814;2022-12-07T07:27:41;3.80;99.90
4201;DHT22;2114;50.398;8.814;2022-12-07T07:32:42;3.80;99.90
4201;DHT22;2114;50.398;8.814;2022-12-07T07:37:43;3.80;99.90
4201;DHT22;2114;50.398;8.814;2022-12-07T07:42:43;3.80;99.90
4201;DHT22;2114;50.398;8.814;2022-12-07T07:47:44;3.80;99.90
4201;DHT22;2114;50.398;8.814;2022-12-07T07:52:46;3.80;99.90
4201;DHT22;2114;50.398;8.814;2022-12-07T08:03:05;3.60;99.90
4201;DHT22;2114;50.398;8.814;2022-12-07T08:08:05;3.50;99.90
4201;DHT22;2114;50.398;8.814;2022-12-07T08:13:06;3.40;99.90
4201;DHT22;2114;50.398;8.814;2022-12-07T08:18:14;3.40;99.90
4201;DHT22;2114;50.398;8.814;2022-12-07T08:23:15;3.30;99.90
4201;DHT22;2114;50.398;8.814;2022-12-07T08:28:16;3.30;99.90
4201;DHT22;2114;50.398;8.814;2022-12-07T08:33:16;3.30;99.90
4201;DHT22;2114;50.398;8.814;2022-12-07T08:38:17;3.30;99.90
4201;DHT22;2114;50.398;8.814;2022-12-07T08:43:17;3.30;99.90
4201;DHT22;2114;50.398;8.814;2022-12-07T08:48:18;3.30;99.90
4201;DHT22;2114;50.398;8.814;2022-12-07T08:53:22;3.30;99.90
4201;DHT22;2114;50.398;8.814;2022-12-07T08:58:23;3.30;99.90
4201;DHT22;2114;50.398;8.814;2022-12-07T09:03:23;3.30;99.90
4201;DHT22;2114;50.398;8.814;2022-12-07T09:08:29;3.40;99.90
4201;DHT22;2114;50.398;8.814;2022-12-07T09:13:31;3.40;99.90
4201;DHT22;2114;50.398;8.814;2022-12-07T09:18:32;3.60;99.90
4201;DHT22;2114;50.398;8.814;2022-12-07T09:23:32;3.70;99.90
4201;DHT22;2114;50.398;8.814;2022-12-07T09:28:33;3.90;99.90
4201;DHT22;2114;50.398;8.814;2022-12-07T09:33:33;4.20;99.90
4201;DHT22;2114;50.398;8.814;2022-12-07T09:38:34;4.40;99.90
4201;DHT22;2114;50.398;8.814;2022-12-07T09:43:36;4.60;99.90
4201;DHT22;2114;50.398;8.814;2022-12-07T09:48:39;4.90;99.90
4201;DHT22;2114;50.398;8.814;2022-12-07T09:53:41;5.00;99.90
4201;DHT22;2114;50.398;8.814;2022-12-07T09:58:43;5.40;99.90
4201;DHT22;2114;50.398;8.814;2022-12-07T10:09:11;5.80;99.90
4201;DHT22;2114;50.398;8.814;2022-12-07T10:14:13;6.00;99.90
4201;DHT22;2114;50.398;8.814;2022-12-07T10:19:29;6.20;99.90
4201;DHT22;2114;50.398;8.814;2022-12-07T10:24:30;6.70;99.90
4201;DHT22;2114;50.398;8.814;2022-12-07T10:29:36;7.10;99.90
4201;DHT22;2114;50.398;8.814;2022-12-07T10:34:37;7.20;99.90
4201;DHT22;2114;50.398;8.814;2022-12-07T10:39:51;7.30;99.90
4201;DHT22;2114;50.398;8.814;2022-12-07T10:45:16;7.60;99.90
4201;DHT22;2114;50.398;8.814;2022-12-07T11:01:06;8.60;99.90
4201;DHT22;2114;50.398;8.814;2022-12-07T11:11:34;8.90;99.90
4201;DHT22;2114;50.398;8.814;2022-12-07T11:21:45;8.50;99.90
4201;DHT22;2114;50.398;8.814;2022-12-07T11:37:30;7.90;99.90
4201;DHT22;2114;50.398;8.814;2022-12-07T11:42:38;7.70;99.90
4201;DHT22;2114;50.398;8.814;2022-12-07T11:47:48;7.60;99.90
4201;DHT22;2114;50.398;8.814;2022-12-07T11:52:58;7.50;99.90
4201;DHT22;2114;50.398;8.814;2022-12-07T11:58:34;7.60;99.90
4201;DHT22;2114;50.398;8.814;2022-12-07T12:03:40;7.80;99.90
4201;DHT22;2114;50.398;8.814;2022-12-07T12:24:26;7.30;99.90
4201;DHT22;2114;50.398;8.814;2022-12-07T12:29:36;7.30;99.90
4201;DHT22;2114;50.398;8.814;2022-12-07T12:35:22;7.40;99.90
4201;DHT22;2114;50.398;8.814;2022-12-07T12:45:26;7.50;99.90
4201;DHT22;2114;50.398;8.814;2022-12-07T12:50:36;7.20;99.90
4201;DHT22;2114;50.398;8.814;2022-12-07T13:00:45;6.80;99.90
4201;DHT22;2114;50.398;8.814;2022-12-07T13:05:46;6.60;99.90
4201;DHT22;2114;50.398;8.814;2022-12-07T13:10:47;6.30;99.90
4201;DHT22;2114;50.398;8.814;2022-12-07T13:26:20;6.20;99.90
4201;DHT22;2114;50.398;8.814;2022-12-07T13:36:43;6.30;99.90
4201;DHT22;2114;50.398;8.814;2022-12-07T13:41:48;6.30;99.90
4201;DHT22;2114;50.398;8.814;2022-12-07T13:46:55;6.20;99.90
4201;DHT22;2114;50.398;8.814;2022-12-07T13:52:15;6.10;99.90
4201;DHT22;2114;50.398;8.814;2022-12-07T13:57:19;6.00;99.90
4201;DHT22;2114;50.398;8.814;2022-12-07T14:02:30;6.10;99.90
4201;DHT22;2114;50.398;8.814;2022-12-07T14:07:33;6.10;99.90
4201;DHT22;2114;50.398;8.814;2022-12-07T14:12:36;6.10;99.90
4201;DHT22;2114;50.398;8.814;2022-12-07T14:17:53;6.10;99.90
4201;DHT22;2114;50.398;8.814;2022-12-07T14:22:55;6.10;99.90
4201;DHT22;2114;50.398;8.814;2022-12-07T14:28:00;6.00;99.90
4201;DHT22;2114;50.398;8.814;2022-12-07T14:33:03;6.00;99.90
4201;DHT22;2114;50.398;8.814;2022-12-07T14:38:04;5.90;99.90
4201;DHT22;2114;50.398;8.814;2022-12-07T14:43:09;5.80;99.90
4201;DHT22;2114;50.398;8.814;2022-12-07T14:48:13;5.70;99.90
4201;DHT22;2114;50.398;8.814;2022-12-07T14:53:16;5.60;99.90
4201;DHT22;2114;50.398;8.814;2022-12-07T14:58:18;5.50;99.90
4201;DHT22;2114;50.398;8.814;2022-12-07T15:03:18;5.30;99.90
4201;DHT22;2114;50.398;8.814;2022-12-07T15:08:19;5.30;99.90
4201;DHT22;2114;50.398;8.814;2022-12-07T15:13:19;5.20;99.90
4201;DHT22;2114;50.398;8.814;2022-12-07T15:18:38;5.10;99.90
4201;DHT22;2114;50.398;8.814;2022-12-07T15:23:39;5.10;99.90
4201;DHT22;2114;50.398;8.814;2022-12-07T15:28:41;5.00;99.90
4201;DHT22;2114;50.398;8.814;2022-12-07T15:33:42;5.00;99.90
4201;DHT22;2114;50.398;8.814;2022-12-07T15:38:42;4.90;99.90
4201;DHT22;2114;50.398;8.814;2022-12-07T15:43:43;4.90;99.90
4201;DHT22;2114;50.398;8.814;2022-12-07T15:49:09;4.90;99.90
4201;DHT22;2114;50.398;8.814;2022-12-07T15:54:20;4.80;99.90
4201;DHT22;2114;50.398;8.814;2022-12-07T15:59:22;4.70;99.90
4201;DHT22;2114;50.398;8.814;2022-12-07T16:04:22;4.70;99.90
4201;DHT22;2114;50.398;8.814;2022-12-07T16:09:23;4.60;99.90
4201;DHT22;2114;50.398;8.814;2022-12-07T16:14:24;4.60;99.90
4201;DHT22;2114;50.398;8.814;2022-12-07T16:19:24;4.60;99.90
4201;DHT22;2114;50.398;8.814;2022-12-07T16:24:25;4.60;99.90
4201;DHT22;2114;50.398;8.814;2022-12-07T16:29:26;4.80;99.90
4201;DHT22;2114;50.398;8.814;2022-12-07T16:34:27;5.20;99.90
4201;DHT22;2114;50.398;8.814;2022-12-07T16:39:28;5.40;99.90
4201;DHT22;2114;50.398;8.814;2022-12-07T16:44:28;5.60;99.90
4201;DHT22;2114;50.398;8.814;2022-12-07T16:49:30;5.70;99.90
4201;DHT22;2114;50.398;8.814;2022-12-07T16:54:31;5.80;99.90
4201;DHT22;2114;50.398;8.814;2022-12-07T16:59:33;5.80;99.90
4201;DHT22;2114;50.398;8.814;2022-12-07T17:04:34;5.80;99.90
4201;DHT22;2114;50.398;8.814;2022-12-07T17:09:36;5.90;99.90
4201;DHT22;2114;50.398;8.814;2022-12-07T17:14:36;5.90;99.90
4201;DHT22;2114;50.398;8.814;2022-12-07T17:19:55;5.90;99.90
4201;DHT22;2114;50.398;8.814;2022-12-07T17:24:56;5.90;99.90
4201;DHT22;2114;50.398;8.814;2022-12-07T17:29:57;5.80;99.90
4201;DHT22;2114;50.398;8.814;2022-12-07T17:40:02;5.60;99.90
4201;DHT22;2114;50.398;8.814;2022-12-07T17:45:05;5.50;99.90
4201;DHT22;2114;50.398;8.814;2022-12-07T17:50:06;5.40;99.90
4201;DHT22;2114;50.398;8.814;2022-12-07T17:55:07;5.40;99.90
4201;DHT22;2114;50.398;8.814;2022-12-07T18:00:09;5.40;99.90
4201;DHT22;2114;50.398;8.814;2022-12-07T18:05:10;5.50;99.90
4201;DHT22;2114;50.398;8.814;2022-12-07T18:10:11;5.50;99.90
4201;DHT22;2114;50.398;8.814;2022-12-07T18:15:12;5.40;99.90
4201;DHT22;2114;50.398;8.814;2022-12-07T18:20:12;5.40;99.90
4201;DHT22;2114;50.398;8.814;2022-12-07T18:25:13;5.30;99.90
4201;DHT22;2114;50.398;8.814;2022-12-07T18:30:14;5.40;99.90
4201;DHT22;2114;50.398;8.814;2022-12-07T18:35:14;5.30;99.90
4201;DHT22;2114;50.398;8.814;2022-12-07T18:40:15;5.40;99.90
4201;DHT22;2114;50.398;8.814;2022-12-07T18:45:16;5.30;99.90
4201;DHT22;2114;50.398;8.814;2022-12-07T18:50:16;5.40;99.90
4201;DHT22;2114;50.398;8.814;2022-12-07T18:55:17;5.30;99.90
4201;DHT22;2114;50.398;8.814;2022-12-07T19:00:18;5.30;99.90
4201;DHT22;2114;50.398;8.814;2022-12-07T19:05:20;5.30;99.90
4201;DHT22;2114;50.398;8.814;2022-12-07T19:10:22;5.30;99.90
4201;DHT22;2114;50.398;8.814;2022-12-07T19:15:23;5.30;99.90
4201;DHT22;2114;50.398;8.814;2022-12-07T19:20:23;5.30;99.90
4201;DHT22;2114;50.398;8.814;2022-12-07T19:25:24;5.30;99.90
4201;DHT22;2114;50.398;8.814;2022-12-07T19:30:25;5.30;99.90
4201;DHT22;2114;50.398;8.814;2022-12-07T19:35:25;5.30;99.90
4201;DHT22;2114;50.398;8.814;2022-12-07T19:40:26;5.30;99.90
4201;DHT22;2114;50.398;8.814;2022-12-07T19:45:26;5.20;99.90
4201;DHT22;2114;50.398;8.814;2022-12-07T19:50:28;5.20;99.90
4201;DHT22;2114;50.398;8.814;2022-12-07T19:55:29;5.10;99.90
4201;DHT22;2114;50.398;8.814;2022-12-07T20:00:29;5.00;99.90
4201;DHT22;2114;50.398;8.814;2022-12-07T20:05:30;5.00;99.90
4201;DHT22;2114;50.398;8.814;2022-12-07T20:10:31;4.90;99.90
4201;DHT22;2114;50.398;8.814;2022-12-07T20:15:36;4.90;99.90
4201;DHT22;2114;50.398;8.814;2022-12-07T20:20:37;4.90;99.90
4201;DHT22;2114;50.398;8.814;2022-12-07T20:25:37;4.90;99.90
4201;DHT22;2114;50.398;8.814;2022-12-07T20:30:48;4.90;99.90
4201;DHT22;2114;50.398;8.814;2022-12-07T20:35:49;4.90;99.90
4201;DHT22;2114;50.398;8.814;2022-12-07T20:40:49;5.00;99.90
4201;DHT22;2114;50.398;8.814;2022-12-07T20:45:51;5.00;99.90
4201;DHT22;2114;50.398;8.814;2022-12-07T20:50:51;4.90;99.90
4201;DHT22;2114;50.398;8.814;2022-12-07T20:55:52;4.90;99.90
4201;DHT22;2114;50.398;8.814;2022-12-07T21:00:59;4.90;99.90
4201;DHT22;2114;50.398;8.814;2022-12-07T21:06:03;4.80;99.90
4201;DHT22;2114;50.398;8.814;2022-12-07T21:11:07;4.80;99.90
4201;DHT22;2114;50.398;8.814;2022-12-07T21:21:17;4.80;99.90
4201;DHT22;2114;50.398;8.814;2022-12-07T21:26:21;4.80;99.90
4201;DHT22;2114;50.398;8.814;2022-12-07T21:31:22;4.70;99.90
4201;DHT22;2114;50.398;8.814;2022-12-07T21:36:24;4.70;99.90
4201;DHT22;2114;50.398;8.814;2022-12-07T21:41:28;4.70;99.90
4201;DHT22;2114;50.398;8.814;2022-12-07T21:46:29;4.70;99.90
4201;DHT22;2114;50.398;8.814;2022-12-07T21:51:30;4.70;99.90
4201;DHT22;2114;50.398;8.814;2022-12-07T21:56:33;4.70;99.90
4201;DHT22;2114;50.398;8.814;2022-12-07T22:01:36;4.60;99.90
4201;DHT22;2114;50.398;8.814;2022-12-07T22:06:37;4.60;99.90
4201;DHT22;2114;50.398;8.814;2022-12-07T22:11:38;4.60;99.90
4201;DHT22;2114;50.398;8.814;2022-12-07T22:16:39;4.60;99.90
4201;DHT22;2114;50.398;8.814;2022-12-07T22:21:39;4.50;99.90
4201;DHT22;2114;50.398;8.814;2022-12-07T22:26:41;4.50;99.90
4201;DHT22;2114;50.398;8.814;2022-12-07T22:31:42;4.50;99.90
4201;DHT22;2114;50.398;8.814;2022-12-07T22:36:43;4.50;99.90
4201;DHT22;2114;50.398;8.814;2022-12-07T22:41:44;4.50;99.90
4201;DHT22;2114;50.398;8.814;2022-12-07T22:46:44;4.50;99.90
4201;DHT22;2114;50.398;8.814;2022-12-07T22:51:45;4.50;99.90
4201;DHT22;2114;50.398;8.814;2022-12-07T22:56:46;4.50;99.90
4201;DHT22;2114;50.398;8.814;2022-12-07T23:01:46;4.50;99.90
4201;DHT22;2114;50.398;8.814;2022-12-07T23:06:48;4.50;99.90
4201;DHT22;2114;50.398;8.814;2022-12-07T23:11:48;4.60;99.90
4201;DHT22;2114;50.398;8.814;2022-12-07T23:17:08;4.60;99.90
4201;DHT22;2114;50.398;8.814;2022-12-07T23:22:08;4.60;99.90
4201;DHT22;2114;50.398;8.814;2022-12-07T23:27:09;4.50;99.90
4201;DHT22;2114;50.398;8.814;2022-12-07T23:32:10;4.50;99.90
4201;DHT22;2114;50.398;8.814;2022-12-07T23:37:10;4.50;99.90
4201;DHT22;2114;50.398;8.814;2022-12-07T23:42:12;4.50;99.90
4201;DHT22;2114;50.398;8.814;2022-12-07T23:47:13;4.50;99.90
4201;DHT22;2114;50.398;8.814;2022-12-07T23:52:17;4.40;99.90
4201;DHT22;2114;50.398;8.814;2022-12-07T23:57:18;4.40;99.90
